createdAt,value
2023-04-22T00:00:09.218Z,2.80
2023-04-22T00:02:37.477Z,2.90
2023-04-22T00:05:06.650Z,2.90
2023-04-22T00:07:34.317Z,2.70
2023-04-22T00:10:01.249Z,2.70
2023-04-22T00:12:28.202Z,2.70
2023-04-22T00:14:55.134Z,2.60
2023-04-22T00:17:22.101Z,2.50
2023-04-22T00:19:49.075Z,2.50
2023-04-22T00:22:16.165Z,2.40
2023-04-22T00:24:43.229Z,2.40
2023-04-22T00:27:10.180Z,2.40
2023-04-22T00:29:37.342Z,2.40
2023-04-22T00:32:04.540Z,2.40
2023-04-22T00:34:31.473Z,2.40
2023-04-22T00:36:58.424Z,2.30
2023-04-22T00:39:25.363Z,2.30
2023-04-22T00:41:52.822Z,2.30
2023-04-22T00:44:19.972Z,2.30
2023-04-22T00:46:47.746Z,2.40
2023-04-22T00:49:16.121Z,2.50
2023-04-22T00:51:43.060Z,2.40
2023-04-22T00:54:10.056Z,2.40
2023-04-22T00:56:39.178Z,2.30
2023-04-22T00:59:06.131Z,2.30
2023-04-22T01:01:33.530Z,2.30
2023-04-22T01:04:01.386Z,2.20
2023-04-22T01:06:32.398Z,2.10
2023-04-22T01:08:59.706Z,2.10
2023-04-22T01:11:26.886Z,2.00
2023-04-22T01:13:54.001Z,1.90
2023-04-22T01:16:22.250Z,1.90
2023-04-22T01:18:49.303Z,1.90
2023-04-22T01:21:17.178Z,1.90
2023-04-22T01:23:44.256Z,1.90
2023-04-22T01:26:11.610Z,1.90
2023-04-22T01:28:38.790Z,1.90
2023-04-22T01:31:05.840Z,1.90
2023-04-22T01:33:33.638Z,1.90
2023-04-22T01:36:00.972Z,1.90
2023-04-22T01:38:28.973Z,1.80
2023-04-22T01:40:56.426Z,1.80
2023-04-22T01:43:23.795Z,1.80
2023-04-22T01:45:50.759Z,1.70
2023-04-22T01:48:17.772Z,1.70
2023-04-22T01:50:45.051Z,1.70
2023-04-22T01:53:11.912Z,1.80
2023-04-22T01:55:39.399Z,1.70
2023-04-22T01:58:06.306Z,1.60
2023-04-22T02:00:33.288Z,1.60
2023-04-22T02:03:00.642Z,1.60
2023-04-22T02:05:28.261Z,1.60
2023-04-22T02:07:55.388Z,1.60
2023-04-22T02:10:22.564Z,1.60
2023-04-22T02:12:49.540Z,1.60
2023-04-22T02:15:16.658Z,1.60
2023-04-22T02:17:43.708Z,1.50
2023-04-22T02:20:14.244Z,1.50
2023-04-22T02:22:43.711Z,1.50
2023-04-22T02:25:12.325Z,1.50
2023-04-22T02:27:39.533Z,1.50
2023-04-22T02:30:07.558Z,1.40
2023-04-22T02:32:36.902Z,1.40
2023-04-22T02:35:05.387Z,1.30
2023-04-22T02:37:32.326Z,1.40
2023-04-22T02:39:59.221Z,1.40
2023-04-22T02:42:26.126Z,1.40
2023-04-22T02:44:52.983Z,1.40
2023-04-22T02:47:20.052Z,1.50
2023-04-22T02:49:46.894Z,1.50
2023-04-22T02:52:13.840Z,1.40
2023-04-22T02:54:40.715Z,1.40
2023-04-22T02:57:07.773Z,1.40
2023-04-22T02:59:36.051Z,1.30
2023-04-22T03:02:05.242Z,1.30
2023-04-22T03:04:33.801Z,1.30
2023-04-22T03:07:00.787Z,1.20
2023-04-22T03:09:27.659Z,1.30
2023-04-22T03:11:56.334Z,1.20
2023-04-22T03:14:23.215Z,1.20
2023-04-22T03:16:50.379Z,1.20
2023-04-22T03:19:17.277Z,1.20
2023-04-22T03:21:44.197Z,1.20
2023-04-22T03:24:11.101Z,1.20
2023-04-22T03:26:38.024Z,1.30
2023-04-22T03:29:04.969Z,1.20
2023-04-22T03:31:31.870Z,1.30
2023-04-22T03:33:58.883Z,1.30
2023-04-22T03:36:27.462Z,1.40
2023-04-22T03:38:54.392Z,1.40
2023-04-22T03:41:21.249Z,1.40
2023-04-22T03:43:48.304Z,1.40
2023-04-22T03:46:16.120Z,1.50
2023-04-22T03:48:43.139Z,1.50
2023-04-22T03:51:10.107Z,1.60
2023-04-22T03:53:37.004Z,1.60
2023-04-22T03:56:04.327Z,1.70
2023-04-22T03:58:31.279Z,1.70
2023-04-22T04:00:58.178Z,1.80
2023-04-22T04:03:26.572Z,1.90
2023-04-22T04:05:54.970Z,2.00
2023-04-22T04:08:22.206Z,2.10
2023-04-22T04:10:49.101Z,2.20
2023-04-22T04:13:15.961Z,2.30
2023-04-22T04:15:43.129Z,2.40
2023-04-22T04:18:11.722Z,2.50
2023-04-22T04:20:38.745Z,2.60
2023-04-22T04:23:05.627Z,2.70
2023-04-22T04:25:37.826Z,2.90
2023-04-22T04:28:11.267Z,3.00
2023-04-22T04:30:38.448Z,3.10
2023-04-22T04:33:07.473Z,3.30
2023-04-22T04:35:36.048Z,3.40
2023-04-22T04:38:03.000Z,3.50
2023-04-22T04:40:30.682Z,3.70
2023-04-22T04:42:57.813Z,3.80
2023-04-22T04:45:25.106Z,4.20
2023-04-22T04:47:55.660Z,4.90
2023-04-22T04:50:23.039Z,5.80
2023-04-22T04:52:50.159Z,6.40
2023-04-22T04:55:18.045Z,6.60
2023-04-22T04:57:45.769Z,6.60
2023-04-22T05:00:16.403Z,6.30
2023-04-22T05:02:43.552Z,6.20
2023-04-22T05:05:10.814Z,6.10
2023-04-22T05:07:37.822Z,6.10
2023-04-22T05:10:05.149Z,6.20
2023-04-22T05:12:32.065Z,6.30
2023-04-22T05:14:59.000Z,6.40
2023-04-22T05:17:26.104Z,6.60
2023-04-22T05:19:53.101Z,6.70
2023-04-22T05:22:20.641Z,6.90
2023-04-22T05:24:47.640Z,7.10
2023-04-22T05:27:14.604Z,7.20
2023-04-22T05:29:42.018Z,7.40
2023-04-22T05:32:09.302Z,7.60
2023-04-22T05:34:36.467Z,7.80
2023-04-22T05:37:04.333Z,8.00
2023-04-22T05:39:31.381Z,8.20
2023-04-22T05:41:58.839Z,8.40
2023-04-22T05:44:25.822Z,8.50
2023-04-22T05:46:52.733Z,8.70
2023-04-22T05:49:19.736Z,8.90
2023-04-22T05:51:46.681Z,9.00
2023-04-22T05:54:13.621Z,9.20
2023-04-22T05:56:40.716Z,9.40
2023-04-22T05:59:07.921Z,9.60
2023-04-22T06:01:38.649Z,9.80
2023-04-22T06:04:06.561Z,10.00
2023-04-22T06:06:33.812Z,10.10
2023-04-22T06:09:00.883Z,10.30
2023-04-22T06:11:28.533Z,10.40
2023-04-22T06:13:55.472Z,10.50
2023-04-22T06:16:23.447Z,10.70
2023-04-22T06:18:50.455Z,10.80
2023-04-22T06:21:17.440Z,11.00
2023-04-22T06:23:44.383Z,11.20
2023-04-22T06:26:11.656Z,11.40
2023-04-22T06:28:38.717Z,11.40
2023-04-22T06:31:05.829Z,11.40
2023-04-22T06:33:32.746Z,11.50
2023-04-22T06:36:00.221Z,11.60
2023-04-22T06:38:27.121Z,11.40
2023-04-22T06:40:54.011Z,11.50
2023-04-22T06:43:21.360Z,11.40
2023-04-22T06:45:48.314Z,11.40
2023-04-22T06:48:15.275Z,11.30
2023-04-22T06:50:42.198Z,11.40
2023-04-22T06:53:10.119Z,11.40
2023-04-22T06:55:37.202Z,11.50
2023-04-22T06:58:04.171Z,11.50
2023-04-22T07:00:31.071Z,11.50
2023-04-22T07:02:58.388Z,11.50
2023-04-22T07:05:25.521Z,11.60
2023-04-22T07:07:52.562Z,11.50
2023-04-22T07:10:19.562Z,11.60
2023-04-22T07:12:46.555Z,11.60
2023-04-22T07:15:13.536Z,11.70
2023-04-22T07:17:40.738Z,11.80
2023-04-22T07:20:08.461Z,11.80
2023-04-22T07:22:35.421Z,11.80
2023-04-22T07:25:02.608Z,11.80
2023-04-22T07:27:29.579Z,11.70
2023-04-22T07:29:56.508Z,11.80
2023-04-22T07:32:23.488Z,11.70
2023-04-22T07:34:50.465Z,11.70
2023-04-22T07:37:17.380Z,11.70
2023-04-22T07:39:44.300Z,11.70
2023-04-22T07:42:11.937Z,11.70
2023-04-22T07:44:39.619Z,11.80
2023-04-22T07:47:08.651Z,11.90
2023-04-22T07:49:35.718Z,12.00
2023-04-22T07:52:02.750Z,12.00
2023-04-22T07:54:29.649Z,12.00
2023-04-22T07:56:58.417Z,12.10
2023-04-22T07:59:25.746Z,12.20
2023-04-22T08:01:52.698Z,12.20
2023-04-22T08:04:24.407Z,12.20
2023-04-22T08:06:51.549Z,12.30
2023-04-22T08:09:18.445Z,12.30
2023-04-22T08:11:45.414Z,12.30
2023-04-22T08:14:12.349Z,12.30
2023-04-22T08:16:40.526Z,12.50
2023-04-22T08:19:07.501Z,12.50
2023-04-22T08:21:37.372Z,12.60
2023-04-22T08:24:04.406Z,12.60
2023-04-22T08:30:19.989Z,12.60
2023-04-22T08:32:47.651Z,12.80
2023-04-22T08:35:14.725Z,13.00
2023-04-22T08:37:42.322Z,13.00
2023-04-22T08:40:09.651Z,13.00
2023-04-22T08:42:37.831Z,13.00
2023-04-22T08:45:05.924Z,12.90
2023-04-22T08:47:35.682Z,12.80
2023-04-22T08:50:04.528Z,12.80
2023-04-22T08:52:31.890Z,12.80
2023-04-22T08:54:59.268Z,12.80
2023-04-22T08:57:26.908Z,12.80
2023-04-22T08:59:55.746Z,13.00
2023-04-22T09:02:24.526Z,13.10
2023-04-22T09:04:56.092Z,12.90
2023-04-22T09:07:28.405Z,12.90
2023-04-22T09:09:56.124Z,12.70
2023-04-22T09:12:24.892Z,12.70
2023-04-22T09:14:53.096Z,12.70
2023-04-22T09:17:33.484Z,12.60
2023-04-22T09:20:06.281Z,12.30
2023-04-22T09:22:45.571Z,12.20
2023-04-22T09:25:20.085Z,12.20
2023-04-22T09:27:51.790Z,12.00
2023-04-22T09:30:40.074Z,11.80
2023-04-22T09:33:07.963Z,11.90
2023-04-22T09:35:40.107Z,12.20
2023-04-22T09:38:09.200Z,12.10
2023-04-22T09:40:37.534Z,12.20
2023-04-22T09:43:07.434Z,12.30
2023-04-22T09:45:41.611Z,12.40
2023-04-22T09:48:17.640Z,12.50
2023-04-22T09:50:46.535Z,12.60
2023-04-22T09:53:16.704Z,12.40
2023-04-22T09:55:55.695Z,12.60
2023-04-22T09:58:27.818Z,12.50
2023-04-22T10:00:58.126Z,12.50
2023-04-22T10:03:25.155Z,12.70
2023-04-22T10:05:52.426Z,12.70
2023-04-22T10:08:19.490Z,12.80
2023-04-22T10:10:46.976Z,12.90
2023-04-22T10:13:14.059Z,12.60
2023-04-22T10:15:51.674Z,12.60
2023-04-22T10:18:28.879Z,12.90
2023-04-22T10:20:57.290Z,13.00
2023-04-22T10:23:25.261Z,13.00
2023-04-22T10:25:55.030Z,13.10
2023-04-22T10:28:23.435Z,13.20
2023-04-22T10:30:52.046Z,13.30
2023-04-22T10:33:21.908Z,13.40
2023-04-22T10:36:10.002Z,13.50
2023-04-22T10:38:42.349Z,13.40
2023-04-22T10:41:16.048Z,13.30
2023-04-22T10:43:48.133Z,13.20
2023-04-22T10:46:34.772Z,13.10
2023-04-22T10:49:11.844Z,13.30
2023-04-22T10:51:50.484Z,13.20
2023-04-22T10:54:32.193Z,13.20
2023-04-22T10:57:13.047Z,13.40
2023-04-22T10:59:54.040Z,13.50
2023-04-22T11:02:22.770Z,13.40
2023-04-22T11:04:50.689Z,13.60
2023-04-22T11:07:26.887Z,13.40
2023-04-22T11:10:04.459Z,13.40
2023-04-22T11:12:39.959Z,13.40
2023-04-22T11:15:11.653Z,13.40
2023-04-22T11:17:40.325Z,13.40
2023-04-22T11:20:08.709Z,13.50
2023-04-22T11:22:36.788Z,13.30
2023-04-22T11:25:05.678Z,13.30
2023-04-22T11:27:33.153Z,13.20
2023-04-22T11:30:09.038Z,13.20
2023-04-22T11:32:37.950Z,13.20
2023-04-22T11:35:10.284Z,13.40
2023-04-22T11:37:47.473Z,13.40
2023-04-22T11:42:56.246Z,13.40
2023-04-22T11:45:23.872Z,13.20
2023-04-22T11:47:52.588Z,13.40
2023-04-22T11:50:29.230Z,13.60
2023-04-22T11:53:23.902Z,13.80
2023-04-22T11:55:52.281Z,13.70
2023-04-22T11:58:25.506Z,13.70
2023-04-22T12:00:53.881Z,13.80
2023-04-22T12:03:29.003Z,13.70
2023-04-22T12:06:01.581Z,13.60
2023-04-22T12:08:42.425Z,13.80
2023-04-22T12:11:11.600Z,13.80
2023-04-22T12:13:38.493Z,13.80
2023-04-22T12:16:10.168Z,13.80
2023-04-22T12:18:48.008Z,14.00
2023-04-22T12:21:17.520Z,14.10
2023-04-22T12:23:48.938Z,14.00
2023-04-22T12:26:17.551Z,14.00
2023-04-22T12:28:45.641Z,13.90
2023-04-22T12:31:14.816Z,13.90
2023-04-22T12:33:42.141Z,14.10
2023-04-22T12:36:09.685Z,14.00
2023-04-22T12:38:37.251Z,13.80
2023-04-22T12:41:05.527Z,13.80
2023-04-22T12:43:36.468Z,13.80
2023-04-22T12:46:04.876Z,13.90
2023-04-22T12:48:32.589Z,13.90
2023-04-22T12:51:00.279Z,13.90
2023-04-22T12:53:28.210Z,13.90
2023-04-22T12:55:55.911Z,13.90
2023-04-22T12:58:22.941Z,14.00
2023-04-22T13:00:49.839Z,14.00
2023-04-22T13:03:16.988Z,14.10
2023-04-22T13:05:45.419Z,14.20
2023-04-22T13:08:12.314Z,14.10
2023-04-22T13:10:39.363Z,14.10
2023-04-22T13:15:39.142Z,14.20
2023-04-22T13:18:06.357Z,14.00
2023-04-22T13:20:33.434Z,13.90
2023-04-22T13:23:02.294Z,14.00
2023-04-22T13:25:29.323Z,14.10
2023-04-22T13:27:56.241Z,14.00
2023-04-22T13:30:23.204Z,14.10
2023-04-22T13:32:50.139Z,14.30
2023-04-22T13:35:18.592Z,14.20
2023-04-22T13:37:46.450Z,14.20
2023-04-22T13:40:13.472Z,14.10
2023-04-22T13:42:40.568Z,13.90
2023-04-22T13:45:08.375Z,13.80
2023-04-22T13:47:35.518Z,13.90
2023-04-22T13:50:02.687Z,13.70
2023-04-22T13:52:29.649Z,13.80
2023-04-22T13:54:56.579Z,13.70
2023-04-22T13:57:23.557Z,13.70
2023-04-22T13:59:50.942Z,13.70
2023-04-22T14:02:18.229Z,13.60
2023-04-22T14:04:45.361Z,13.60
2023-04-22T14:07:13.188Z,13.60
2023-04-22T14:09:40.184Z,13.70
2023-04-22T14:12:08.127Z,14.00
2023-04-22T14:14:35.116Z,14.50
2023-04-22T14:17:02.309Z,14.80
2023-04-22T14:19:30.535Z,15.40
2023-04-22T14:21:58.211Z,15.70
2023-04-22T14:24:25.599Z,16.00
2023-04-22T14:26:52.931Z,16.10
2023-04-22T14:29:20.134Z,16.20
2023-04-22T14:31:47.133Z,16.40
2023-04-22T14:34:14.009Z,16.70
2023-04-22T14:36:41.053Z,16.90
2023-04-22T14:39:07.962Z,16.90
2023-04-22T14:41:35.201Z,17.40
2023-04-22T14:44:02.183Z,17.00
2023-04-22T14:46:30.580Z,17.10
2023-04-22T14:48:57.522Z,17.10
2023-04-22T14:51:24.716Z,17.30
2023-04-22T14:53:51.718Z,16.80
2023-04-22T14:56:19.037Z,16.40
2023-04-22T14:58:46.636Z,16.30
2023-04-22T15:01:13.660Z,15.90
2023-04-22T15:03:41.075Z,15.70
2023-04-22T15:06:08.343Z,15.60
2023-04-22T15:08:35.567Z,15.20
2023-04-22T15:11:02.633Z,15.40
2023-04-22T15:13:29.542Z,15.70
2023-04-22T15:15:57.353Z,15.80
2023-04-22T15:18:25.078Z,15.70
2023-04-22T15:20:51.944Z,15.80
2023-04-22T15:23:18.849Z,16.20
2023-04-22T15:25:46.067Z,16.30
2023-04-22T15:28:12.998Z,16.50
2023-04-22T15:30:40.878Z,16.60
2023-04-22T15:33:07.928Z,16.40
2023-04-22T15:35:34.889Z,16.70
2023-04-22T15:38:03.049Z,16.60
2023-04-22T15:40:30.137Z,16.60
2023-04-22T15:42:57.080Z,16.50
2023-04-22T15:45:24.063Z,17.00
2023-04-22T15:47:52.514Z,17.10
2023-04-22T15:50:20.233Z,16.30
2023-04-22T15:52:47.131Z,17.00
2023-04-22T15:55:14.124Z,17.60
2023-04-22T15:57:41.048Z,17.70
2023-04-22T16:00:12.450Z,18.10
2023-04-22T16:02:41.592Z,18.60
2023-04-22T16:05:09.112Z,18.70
2023-04-22T16:07:36.248Z,18.70
2023-04-22T16:10:03.253Z,18.30
2023-04-22T16:12:31.983Z,18.00
2023-04-22T16:15:00.411Z,18.10
2023-04-22T16:17:27.558Z,16.90
2023-04-22T16:19:55.233Z,16.20
2023-04-22T16:22:22.173Z,16.20
2023-04-22T16:24:49.329Z,16.70
2023-04-22T16:27:18.513Z,16.60
2023-04-22T16:29:45.931Z,16.70
2023-04-22T16:32:12.979Z,16.50
2023-04-22T16:34:40.150Z,15.80
2023-04-22T16:37:08.576Z,15.50
2023-04-22T16:39:35.629Z,15.20
2023-04-22T16:42:03.178Z,15.00
2023-04-22T16:44:30.175Z,14.50
2023-04-22T16:46:57.209Z,14.50
2023-04-22T16:49:24.163Z,14.30
2023-04-22T16:51:51.165Z,14.00
2023-04-22T16:54:18.153Z,13.50
2023-04-22T16:56:45.063Z,13.10
2023-04-22T16:59:12.027Z,12.60
2023-04-22T17:01:40.910Z,12.30
2023-04-22T17:04:08.879Z,12.00
2023-04-22T17:06:37.730Z,11.80
2023-04-22T17:09:06.859Z,11.60
2023-04-22T17:11:33.820Z,11.40
2023-04-22T17:14:01.016Z,11.20
2023-04-22T17:16:28.183Z,11.10
2023-04-22T17:18:55.338Z,11.00
2023-04-22T17:21:25.391Z,10.90
2023-04-22T17:23:52.636Z,10.80
2023-04-22T17:26:19.526Z,10.70
2023-04-22T17:28:46.559Z,10.60
2023-04-22T17:31:13.640Z,10.50
2023-04-22T17:33:41.313Z,10.40
2023-04-22T17:36:08.393Z,10.30
2023-04-22T17:38:35.805Z,10.20
2023-04-22T17:41:02.795Z,10.10
2023-04-22T17:43:29.891Z,10.00
2023-04-22T17:45:57.014Z,10.00
2023-04-22T17:48:23.959Z,9.90
2023-04-22T17:50:51.080Z,9.80
2023-04-22T17:53:18.066Z,9.70
2023-04-22T17:55:45.014Z,9.60
2023-04-22T17:58:12.152Z,9.50
2023-04-22T18:00:39.750Z,9.50
2023-04-22T18:03:06.916Z,9.40
2023-04-22T18:05:34.100Z,9.30
2023-04-22T18:08:02.948Z,9.20
2023-04-22T18:10:30.667Z,9.20
2023-04-22T18:12:57.875Z,9.10
2023-04-22T18:15:24.810Z,9.00
2023-04-22T18:17:52.049Z,8.90
2023-04-22T18:20:19.938Z,8.80
2023-04-22T18:22:48.620Z,8.70
2023-04-22T18:25:16.562Z,8.70
2023-04-22T18:27:44.338Z,8.70
2023-04-22T18:30:11.666Z,8.60
2023-04-22T18:32:38.972Z,8.60
2023-04-22T18:35:06.467Z,8.50
2023-04-22T18:37:34.988Z,8.50
2023-04-22T18:40:02.835Z,8.40
2023-04-22T18:42:30.361Z,8.40
2023-04-22T18:44:57.457Z,8.20
2023-04-22T18:47:24.541Z,8.20
2023-04-22T18:49:51.498Z,8.20
2023-04-22T18:52:18.749Z,8.20
2023-04-22T18:54:45.772Z,8.10
2023-04-22T18:57:13.200Z,8.10
2023-04-22T18:59:40.149Z,8.00
2023-04-22T19:02:07.133Z,8.00
2023-04-22T19:04:34.250Z,7.90
2023-04-22T19:07:01.210Z,7.90
2023-04-22T19:09:28.199Z,7.80
2023-04-22T19:11:55.925Z,7.80
2023-04-22T19:14:22.903Z,7.70
2023-04-22T19:16:49.894Z,7.60
2023-04-22T19:19:16.821Z,7.60
2023-04-22T19:21:43.948Z,7.50
2023-04-22T19:24:13.708Z,7.50
2023-04-22T19:26:41.439Z,7.50
2023-04-22T19:29:08.817Z,7.40
2023-04-22T19:31:35.869Z,7.40
2023-04-22T19:34:03.179Z,7.30
2023-04-22T19:36:30.123Z,7.20
2023-04-22T19:38:57.091Z,7.00
2023-04-22T19:41:24.734Z,6.90
2023-04-22T19:43:51.690Z,6.80
2023-04-22T19:46:18.648Z,6.70
2023-04-22T19:48:45.941Z,6.60
2023-04-22T19:51:13.303Z,6.60
2023-04-22T19:53:41.602Z,6.50
2023-04-22T19:56:12.043Z,6.40
2023-04-22T19:58:39.714Z,6.50
2023-04-22T20:01:06.860Z,6.60
2023-04-22T20:03:34.288Z,6.50
2023-04-22T20:06:01.868Z,6.40
2023-04-22T20:08:29.809Z,6.50
2023-04-22T20:10:58.419Z,6.40
2023-04-22T20:13:26.297Z,6.40
2023-04-22T20:15:53.563Z,6.30
2023-04-22T20:18:20.709Z,6.20
2023-04-22T20:20:49.180Z,6.20
2023-04-22T20:23:20.896Z,6.20
2023-04-22T20:25:49.021Z,6.30
2023-04-22T20:28:16.069Z,6.10
2023-04-22T20:30:43.348Z,6.00
2023-04-22T20:33:12.756Z,6.00
2023-04-22T20:35:41.570Z,6.00
2023-04-22T20:38:12.532Z,5.90
2023-04-22T20:40:40.455Z,5.90
2023-04-22T20:43:07.864Z,5.90
2023-04-22T20:45:35.257Z,5.90
2023-04-22T20:48:02.549Z,5.90
2023-04-22T20:50:33.554Z,6.00
2023-04-22T20:53:01.277Z,6.00
2023-04-22T20:55:28.268Z,6.00
2023-04-22T20:57:55.197Z,5.90
2023-04-22T21:00:22.490Z,5.90
2023-04-22T21:02:50.436Z,5.90
2023-04-22T21:05:17.996Z,6.00
2023-04-22T21:07:52.134Z,6.00
2023-04-22T21:10:22.648Z,5.90
2023-04-22T21:12:50.140Z,5.90
2023-04-22T21:15:17.526Z,5.90
2023-04-22T21:17:54.367Z,5.80
2023-04-22T21:20:24.426Z,5.80
2023-04-22T21:22:53.333Z,5.80
2023-04-22T21:25:22.252Z,5.70
2023-04-22T21:27:49.672Z,5.70
2023-04-22T21:30:17.179Z,5.70
2023-04-22T21:32:44.214Z,5.70
2023-04-22T21:35:11.416Z,5.60
2023-04-22T21:37:38.416Z,5.60
2023-04-22T21:40:09.664Z,5.60
2023-04-22T21:42:36.563Z,5.50
2023-04-22T21:45:04.506Z,5.60
2023-04-22T21:47:31.576Z,5.60
2023-04-22T21:49:58.485Z,5.50
2023-04-22T21:52:25.593Z,5.60
2023-04-22T21:54:52.485Z,5.60
2023-04-22T21:57:19.484Z,5.70
2023-04-22T21:59:46.347Z,5.70
2023-04-22T22:02:13.338Z,5.60
2023-04-22T22:04:40.669Z,5.60
2023-04-22T22:07:07.822Z,5.50
2023-04-22T22:09:34.908Z,5.50
2023-04-22T22:12:01.995Z,5.60
2023-04-22T22:14:28.942Z,5.70
2023-04-22T22:16:55.960Z,5.70
2023-04-22T22:19:23.927Z,5.60
2023-04-22T22:21:51.359Z,5.50
2023-04-22T22:24:18.338Z,5.50
2023-04-22T22:26:45.317Z,5.50
2023-04-22T22:29:15.653Z,5.40
2023-04-22T22:31:44.205Z,5.40
2023-04-22T22:34:11.462Z,5.30
2023-04-22T22:36:38.426Z,5.30
2023-04-22T22:39:05.451Z,5.40
2023-04-22T22:41:32.438Z,5.40
2023-04-22T22:43:59.415Z,5.40
2023-04-22T22:46:26.487Z,5.30
2023-04-22T22:48:53.576Z,5.30
2023-04-22T22:51:21.225Z,5.20
2023-04-22T22:53:48.153Z,5.20
2023-04-22T22:56:15.578Z,5.20
2023-04-22T22:58:42.543Z,5.20
2023-04-22T23:01:09.641Z,5.10
2023-04-22T23:03:37.230Z,5.10
2023-04-22T23:06:04.613Z,5.10
2023-04-22T23:08:31.555Z,5.10
2023-04-22T23:10:58.401Z,5.20
2023-04-22T23:13:25.294Z,5.10
2023-04-22T23:15:52.471Z,5.20
2023-04-22T23:18:19.537Z,5.20
2023-04-22T23:20:50.014Z,5.20
2023-04-22T23:23:18.185Z,5.20
2023-04-22T23:25:46.966Z,5.30
2023-04-22T23:28:14.194Z,5.30
2023-04-22T23:30:41.779Z,5.30
2023-04-22T23:33:12.526Z,5.50
2023-04-22T23:35:41.666Z,5.50
2023-04-22T23:38:11.117Z,5.60
2023-04-22T23:40:38.053Z,5.60
2023-04-22T23:43:04.985Z,5.60
2023-04-22T23:45:32.036Z,5.70
2023-04-22T23:47:58.978Z,5.80
2023-04-22T23:50:25.913Z,5.80
2023-04-22T23:52:52.865Z,6.00
2023-04-22T23:55:20.042Z,6.10
2023-04-22T23:57:47.223Z,6.20
